createdAt,value
2023-02-14T00:01:11.452Z,27.02
2023-02-14T00:03:38.178Z,23.98
2023-02-14T00:06:15.896Z,25.30
2023-02-14T00:08:44.786Z,24.05
2023-02-14T00:11:13.904Z,28.67
2023-02-14T00:14:01.647Z,26.45
2023-02-14T00:16:29.004Z,22.20
2023-02-14T00:19:05.177Z,23.45
2023-02-14T00:21:37.570Z,23.63
2023-02-14T00:24:16.278Z,25.20
2023-02-14T00:26:44.248Z,29.05
2023-02-14T00:29:13.175Z,23.13
2023-02-14T00:31:41.694Z,24.88
2023-02-14T00:34:09.348Z,23.98
2023-02-14T00:36:36.346Z,24.35
2023-02-14T00:39:05.203Z,25.70
2023-02-14T00:41:32.491Z,23.52
2023-02-14T00:44:00.020Z,26.60
2023-02-14T00:46:27.610Z,25.20
2023-02-14T00:48:56.122Z,27.70
2023-02-14T00:51:23.434Z,25.63
2023-02-14T00:53:51.492Z,29.40
2023-02-14T00:56:19.291Z,29.52
2023-02-14T00:58:47.106Z,26.48
2023-02-14T01:01:15.372Z,28.33
2023-02-14T01:03:42.900Z,32.55
2023-02-14T01:06:09.635Z,28.23
2023-02-14T01:08:36.890Z,27.05
2023-02-14T01:11:19.211Z,25.92
2023-02-14T01:13:47.848Z,32.13
2023-02-14T01:16:20.767Z,28.08
2023-02-14T01:18:48.445Z,29.23
2023-02-14T01:21:31.695Z,26.85
2023-02-14T01:24:05.602Z,27.90
2023-02-14T01:26:33.155Z,26.65
2023-02-14T01:29:01.776Z,27.63
2023-02-14T01:31:31.748Z,31.20
2023-02-14T01:33:59.951Z,28.60
2023-02-14T01:36:31.477Z,28.23
2023-02-14T01:39:02.445Z,28.85
2023-02-14T01:41:32.765Z,28.48
2023-02-14T01:44:02.790Z,26.83
2023-02-14T01:46:32.366Z,24.98
2023-02-14T01:49:07.509Z,25.50
2023-02-14T01:51:38.726Z,26.85
2023-02-14T01:54:08.582Z,25.08
2023-02-14T01:56:40.531Z,30.08
2023-02-14T01:59:11.190Z,31.30
2023-02-14T02:01:39.187Z,29.80
2023-02-14T02:04:15.848Z,28.23
2023-02-14T02:06:49.833Z,28.55
2023-02-14T02:09:32.782Z,25.83
2023-02-14T02:12:00.563Z,28.52
2023-02-14T02:14:29.983Z,27.40
2023-02-14T02:17:18.152Z,28.73
2023-02-14T02:20:00.482Z,28.30
2023-02-14T02:22:48.943Z,28.17
2023-02-14T02:25:36.902Z,28.48
2023-02-14T02:28:03.560Z,30.00
2023-02-14T02:30:54.660Z,26.50
2023-02-14T02:33:46.910Z,28.95
2023-02-14T02:36:42.205Z,27.95
2023-02-14T02:39:50.525Z,34.75
2023-02-14T02:42:17.160Z,33.60
2023-02-14T02:44:53.317Z,30.00
2023-02-14T02:47:44.330Z,22.73
2023-02-14T02:50:37.678Z,24.80
2023-02-14T02:53:23.406Z,24.80
2023-02-14T02:56:19.420Z,27.67
2023-02-14T02:59:01.118Z,23.63
2023-02-14T03:01:36.691Z,21.73
2023-02-14T03:04:26.803Z,20.83
2023-02-14T03:06:53.664Z,24.08
2023-02-14T03:09:21.165Z,26.45
2023-02-14T03:12:03.058Z,28.30
2023-02-14T03:14:47.578Z,24.77
2023-02-14T03:17:25.188Z,26.13
2023-02-14T03:20:21.008Z,22.35
2023-02-14T03:23:16.824Z,25.60
2023-02-14T03:25:57.683Z,24.15
2023-02-14T03:29:01.825Z,22.25
2023-02-14T03:31:46.824Z,25.13
2023-02-14T03:34:22.192Z,22.58
2023-02-14T03:37:10.044Z,25.73
2023-02-14T03:40:10.706Z,25.13
2023-02-14T03:42:51.200Z,25.42
2023-02-14T03:45:53.645Z,24.75
2023-02-14T03:48:24.316Z,22.40
2023-02-14T03:50:52.410Z,31.63
2023-02-14T03:53:23.982Z,27.58
2023-02-14T03:56:23.242Z,26.20
2023-02-14T03:58:53.796Z,34.88
2023-02-14T04:01:49.379Z,29.02
2023-02-14T04:04:20.137Z,27.77
2023-02-14T04:06:47.534Z,33.45
2023-02-14T04:09:14.290Z,29.50
2023-02-14T04:11:41.645Z,29.27
2023-02-14T04:14:08.322Z,32.30
2023-02-14T04:16:55.893Z,28.17
2023-02-14T04:19:22.583Z,27.80
2023-02-14T04:21:50.425Z,28.05
2023-02-14T04:24:18.246Z,28.08
2023-02-14T04:26:53.869Z,27.13
2023-02-14T04:29:21.591Z,27.90
2023-02-14T04:31:48.406Z,26.55
2023-02-14T04:34:15.749Z,29.38
2023-02-14T04:36:42.346Z,26.75
2023-02-14T04:39:09.736Z,27.88
2023-02-14T04:41:36.341Z,26.38
2023-02-14T04:44:03.602Z,29.33
2023-02-14T04:46:30.259Z,29.77
2023-02-14T04:48:57.618Z,27.42
2023-02-14T04:51:26.148Z,27.13
2023-02-14T04:53:54.627Z,25.58
2023-02-14T04:56:21.231Z,30.95
2023-02-14T04:58:48.474Z,21.38
2023-02-14T05:01:15.313Z,26.13
2023-02-14T05:03:42.606Z,27.27
2023-02-14T05:06:09.172Z,26.10
2023-02-14T05:08:36.508Z,23.80
2023-02-14T05:11:03.309Z,27.05
2023-02-14T05:13:32.237Z,29.40
2023-02-14T05:15:59.436Z,29.45
2023-02-14T05:18:26.912Z,29.65
2023-02-14T05:20:54.515Z,29.73
2023-02-14T05:23:22.521Z,29.67
2023-02-14T05:25:50.151Z,32.45
2023-02-14T05:28:18.243Z,33.17
2023-02-14T05:30:45.070Z,31.27
2023-02-14T05:33:12.631Z,32.88
2023-02-14T05:35:39.215Z,40.58
2023-02-14T05:38:06.609Z,33.92
2023-02-14T05:40:33.516Z,41.78
2023-02-14T05:43:00.861Z,38.25
2023-02-14T05:45:27.461Z,35.08
2023-02-14T05:47:54.736Z,36.13
2023-02-14T05:50:21.694Z,41.15
2023-02-14T05:52:48.954Z,34.05
2023-02-14T05:55:15.955Z,35.33
2023-02-14T05:57:43.380Z,31.67
2023-02-14T06:00:10.904Z,33.55
2023-02-14T06:02:41.268Z,32.05
2023-02-14T06:05:08.191Z,32.55
2023-02-14T06:07:35.310Z,30.45
2023-02-14T06:10:01.907Z,37.60
2023-02-14T06:12:29.222Z,38.70
2023-02-14T06:14:55.812Z,39.70
2023-02-14T06:17:23.078Z,39.67
2023-02-14T06:19:49.642Z,46.80
2023-02-14T06:22:16.906Z,42.70
2023-02-14T06:24:43.509Z,39.92
2023-02-14T06:27:10.738Z,38.15
2023-02-14T06:29:37.374Z,41.58
2023-02-14T06:32:07.235Z,42.08
2023-02-14T06:34:34.526Z,43.85
2023-02-14T06:37:01.596Z,47.33
2023-02-14T06:39:28.328Z,42.05
2023-02-14T06:41:55.801Z,44.25
2023-02-14T06:44:22.514Z,45.38
2023-02-14T06:46:49.837Z,48.03
2023-02-14T06:49:16.449Z,46.75
2023-02-14T06:51:43.833Z,45.08
2023-02-14T06:54:10.549Z,45.30
2023-02-14T06:56:37.850Z,45.22
2023-02-14T06:59:04.435Z,49.83
2023-02-14T07:01:31.731Z,49.88
2023-02-14T07:03:58.346Z,47.33
2023-02-14T07:06:25.720Z,51.47
2023-02-14T07:08:52.331Z,52.75
2023-02-14T07:11:19.659Z,49.42
2023-02-14T07:13:48.513Z,50.35
2023-02-14T07:16:16.806Z,52.83
2023-02-14T07:18:43.423Z,57.20
2023-02-14T07:21:10.756Z,56.20
2023-02-14T07:23:37.397Z,56.50
2023-02-14T07:26:04.865Z,57.72
2023-02-14T07:28:33.357Z,58.67
2023-02-14T07:31:01.796Z,60.38
2023-02-14T07:33:28.883Z,63.13
2023-02-14T07:35:56.774Z,55.67
2023-02-14T07:38:24.365Z,60.38
2023-02-14T07:40:54.123Z,64.40
2023-02-14T07:43:20.701Z,52.15
2023-02-14T07:45:49.071Z,60.75
2023-02-14T07:48:15.798Z,62.03
2023-02-14T07:50:43.238Z,67.75
2023-02-14T07:53:10.136Z,59.33
2023-02-14T07:55:39.441Z,60.85
2023-02-14T07:58:06.665Z,55.10
2023-02-14T08:00:34.102Z,55.50
2023-02-14T08:03:00.721Z,52.55
2023-02-14T08:05:28.097Z,50.05
2023-02-14T08:07:54.784Z,53.15
2023-02-14T08:10:22.031Z,44.03
2023-02-14T08:13:00.835Z,43.80
2023-02-14T08:15:52.411Z,44.65
2023-02-14T08:18:22.845Z,42.88
2023-02-14T08:20:50.240Z,46.08
2023-02-14T08:23:18.221Z,40.63
2023-02-14T08:25:45.565Z,41.08
2023-02-14T08:28:13.638Z,41.80
2023-02-14T08:30:42.993Z,34.88
2023-02-14T08:33:10.089Z,41.60
2023-02-14T08:35:37.763Z,44.67
2023-02-14T08:38:05.215Z,38.50
2023-02-14T08:40:34.421Z,33.22
2023-02-14T08:43:01.035Z,35.20
2023-02-14T08:45:28.323Z,37.35
2023-02-14T08:47:55.040Z,37.13
2023-02-14T08:50:22.398Z,39.50
2023-02-14T08:52:49.012Z,38.72
2023-02-14T08:55:16.361Z,37.63
2023-02-14T08:57:43.005Z,38.28
2023-02-14T09:00:10.359Z,42.40
2023-02-14T09:02:37.841Z,38.17
2023-02-14T09:05:06.026Z,38.70
2023-02-14T09:07:33.546Z,44.83
2023-02-14T09:10:00.202Z,37.75
2023-02-14T09:12:27.294Z,48.17
2023-02-14T09:14:54.037Z,45.65
2023-02-14T09:17:21.385Z,48.15
2023-02-14T09:19:48.028Z,50.63
2023-02-14T09:22:15.465Z,44.22
2023-02-14T09:24:42.518Z,51.30
2023-02-14T09:27:09.288Z,48.90
2023-02-14T09:29:36.615Z,58.35
2023-02-14T09:32:05.395Z,54.55
2023-02-14T09:34:34.218Z,55.53
2023-02-14T09:37:01.583Z,47.10
2023-02-14T09:39:28.178Z,53.67
2023-02-14T09:42:15.662Z,52.22
2023-02-14T09:44:46.982Z,50.63
2023-02-14T09:47:32.311Z,49.97
2023-02-14T09:49:59.880Z,54.85
2023-02-14T09:52:30.076Z,53.20
2023-02-14T09:55:00.974Z,52.40
2023-02-14T09:57:57.297Z,47.97
2023-02-14T10:01:05.452Z,46.53
2023-02-14T10:04:05.936Z,52.97
2023-02-14T10:06:55.103Z,56.10
2023-02-14T10:10:02.970Z,51.30
2023-02-14T10:12:44.258Z,47.90
2023-02-14T10:15:33.059Z,48.67
2023-02-14T10:18:14.613Z,46.65
2023-02-14T10:20:49.916Z,45.45
2023-02-14T10:23:50.125Z,48.22
2023-02-14T10:26:27.441Z,52.33
2023-02-14T10:28:55.821Z,43.88
2023-02-14T10:31:55.857Z,49.92
2023-02-14T10:34:35.091Z,48.35
2023-02-14T10:37:05.062Z,51.42
2023-02-14T10:39:43.962Z,51.22
2023-02-14T10:42:21.592Z,44.95
2023-02-14T10:45:14.168Z,49.30
2023-02-14T10:47:55.281Z,53.63
2023-02-14T10:50:47.436Z,51.03
2023-02-14T10:53:56.877Z,36.20
2023-02-14T10:56:32.086Z,54.38
2023-02-14T10:59:02.919Z,47.75
2023-02-14T11:01:30.045Z,46.30
2023-02-14T11:04:09.087Z,47.42
2023-02-14T11:06:35.732Z,45.95
2023-02-14T11:09:03.651Z,49.42
2023-02-14T11:11:40.692Z,50.50
2023-02-14T11:14:25.096Z,50.53
2023-02-14T11:16:54.100Z,52.28
2023-02-14T11:19:26.366Z,50.97
2023-02-14T11:21:57.987Z,46.80
2023-02-14T11:24:29.868Z,41.25
2023-02-14T11:27:06.155Z,42.03
2023-02-14T11:29:52.717Z,46.55
2023-02-14T11:32:24.319Z,49.65
2023-02-14T11:35:07.860Z,47.92
2023-02-14T11:37:42.237Z,52.65
2023-02-14T11:40:41.781Z,49.45
2023-02-14T11:43:14.447Z,44.28
2023-02-14T11:45:44.411Z,52.90
2023-02-14T11:48:37.830Z,45.20
2023-02-14T11:51:13.836Z,48.05
2023-02-14T11:53:56.215Z,48.15
2023-02-14T11:56:24.308Z,44.53
2023-02-14T11:59:00.968Z,49.80
2023-02-14T12:01:33.634Z,51.05
2023-02-14T12:06:35.623Z,44.92
2023-02-14T12:09:21.887Z,51.33
2023-02-14T12:11:56.606Z,48.40
2023-02-14T12:14:26.262Z,47.90
2023-02-14T12:17:02.725Z,45.42
2023-02-14T12:19:49.091Z,42.10
2023-02-14T12:22:39.635Z,40.58
2023-02-14T12:25:16.607Z,41.60
2023-02-14T12:27:55.950Z,42.40
2023-02-14T12:30:24.780Z,46.08
2023-02-14T12:32:54.270Z,50.00
2023-02-14T12:35:53.853Z,44.50
2023-02-14T12:38:52.229Z,46.13
2023-02-14T12:41:37.187Z,45.53
2023-02-14T12:44:27.553Z,45.30
2023-02-14T12:47:11.771Z,46.72
2023-02-14T12:50:06.031Z,45.17
2023-02-14T12:52:45.177Z,46.55
2023-02-14T12:55:35.893Z,45.80
2023-02-14T12:58:21.140Z,42.58
2023-02-14T13:00:54.001Z,45.75
2023-02-14T13:03:44.857Z,41.97
2023-02-14T13:06:14.474Z,38.03
2023-02-14T13:09:25.840Z,45.50
2023-02-14T13:11:57.424Z,40.38
2023-02-14T13:14:32.212Z,43.15
2023-02-14T13:17:19.043Z,37.58
2023-02-14T13:20:04.370Z,43.08
2023-02-14T13:22:34.141Z,41.13
2023-02-14T13:25:04.962Z,42.65
2023-02-14T13:27:37.145Z,47.10
2023-02-14T13:30:08.792Z,39.03
2023-02-14T13:32:40.724Z,45.13
2023-02-14T13:35:08.535Z,43.70
2023-02-14T13:37:36.890Z,48.92
2023-02-14T13:40:15.759Z,42.42
2023-02-14T13:42:49.933Z,47.17
2023-02-14T13:45:40.486Z,42.63
2023-02-14T13:48:19.188Z,43.88
2023-02-14T13:50:56.595Z,40.95
2023-02-14T13:53:44.727Z,43.00
2023-02-14T13:56:17.271Z,40.05
2023-02-14T13:58:56.405Z,42.90
2023-02-14T14:01:32.411Z,43.78
2023-02-14T14:04:02.139Z,41.90
2023-02-14T14:06:29.451Z,45.05
2023-02-14T14:08:57.072Z,50.72
2023-02-14T14:11:23.700Z,45.70
2023-02-14T14:14:02.555Z,43.05
2023-02-14T14:16:33.601Z,39.38
2023-02-14T14:19:09.498Z,41.67
2023-02-14T14:21:39.516Z,41.13
2023-02-14T14:24:24.293Z,39.35
2023-02-14T14:27:17.387Z,38.60
2023-02-14T14:30:29.076Z,39.10
2023-02-14T14:32:56.694Z,39.15
2023-02-14T14:35:25.141Z,37.45
2023-02-14T14:37:58.583Z,40.55
2023-02-14T14:40:32.542Z,41.20
2023-02-14T14:43:12.331Z,41.65
2023-02-14T14:45:41.579Z,35.97
2023-02-14T14:48:12.920Z,43.38
2023-02-14T14:50:45.724Z,36.80
2023-02-14T14:53:42.286Z,40.88
2023-02-14T14:56:25.474Z,41.35
2023-02-14T14:58:53.935Z,43.35
2023-02-14T15:01:40.207Z,37.97
2023-02-14T15:04:19.032Z,42.45
2023-02-14T15:06:47.942Z,41.22
2023-02-14T15:09:20.166Z,37.10
2023-02-14T15:12:08.207Z,37.75
2023-02-14T15:14:39.995Z,44.45
2023-02-14T15:17:27.163Z,41.90
2023-02-14T15:20:02.777Z,40.00
2023-02-14T15:22:34.049Z,35.20
2023-02-14T15:25:00.752Z,37.30
2023-02-14T15:27:28.306Z,37.78
2023-02-14T15:30:10.022Z,41.67
2023-02-14T15:32:38.003Z,38.42
2023-02-14T15:35:06.932Z,35.63
2023-02-14T15:37:34.199Z,38.70
2023-02-14T15:40:02.701Z,41.90
2023-02-14T15:42:32.925Z,41.15
2023-02-14T15:45:18.391Z,42.78
2023-02-14T15:47:48.005Z,39.50
2023-02-14T15:50:25.874Z,37.67
2023-02-14T15:53:02.181Z,34.70
2023-02-14T15:55:30.990Z,34.72
2023-02-14T15:58:26.678Z,32.42
2023-02-14T16:00:54.010Z,36.35
2023-02-14T16:03:24.457Z,36.33
2023-02-14T16:05:52.045Z,38.90
2023-02-14T16:08:35.083Z,38.78
2023-02-14T16:11:15.683Z,43.17
2023-02-14T16:13:45.345Z,34.65
2023-02-14T16:16:14.436Z,38.10
2023-02-14T16:18:50.750Z,38.40
2023-02-14T16:21:32.043Z,43.30
2023-02-14T16:24:10.979Z,45.72
2023-02-14T16:26:42.719Z,39.75
2023-02-14T16:29:16.272Z,47.40
2023-02-14T16:34:34.742Z,46.35
2023-02-14T16:37:18.813Z,42.22
2023-02-14T16:39:46.066Z,40.95
2023-02-14T16:42:19.558Z,45.45
2023-02-14T16:44:47.486Z,46.03
2023-02-14T16:47:16.230Z,55.58
2023-02-14T16:49:43.508Z,45.58
2023-02-14T16:52:19.620Z,48.53
2023-02-14T16:54:47.616Z,47.05
2023-02-14T16:57:23.463Z,47.28
2023-02-14T16:59:50.816Z,47.90
2023-02-14T17:02:18.905Z,42.88
2023-02-14T17:04:46.281Z,44.80
2023-02-14T17:07:15.375Z,47.00
2023-02-14T17:09:48.864Z,43.50
2023-02-14T17:12:20.399Z,47.35
2023-02-14T17:14:51.952Z,45.50
2023-02-14T17:17:19.157Z,47.10
2023-02-14T17:19:46.555Z,51.83
2023-02-14T17:22:14.251Z,54.15
2023-02-14T17:24:41.815Z,49.47
2023-02-14T17:27:08.596Z,53.97
2023-02-14T17:29:35.693Z,50.72
2023-02-14T17:32:02.514Z,60.05
2023-02-14T17:34:33.729Z,91.40
2023-02-14T17:37:00.400Z,86.93
2023-02-14T17:39:27.369Z,123.90
2023-02-14T17:41:56.470Z,124.00
2023-02-14T17:44:23.969Z,158.55
2023-02-14T17:46:50.647Z,165.23
2023-02-14T17:49:17.617Z,156.57
2023-02-14T17:51:44.906Z,150.07
2023-02-14T17:54:12.298Z,143.38
2023-02-14T17:56:39.663Z,117.07
2023-02-14T17:59:06.303Z,97.95
2023-02-14T18:01:34.670Z,103.95
2023-02-14T18:04:01.746Z,74.85
2023-02-14T18:06:28.934Z,65.90
2023-02-14T18:08:58.534Z,60.72
2023-02-14T18:11:28.386Z,67.63
2023-02-14T18:13:56.153Z,70.50
2023-02-14T18:16:25.101Z,63.90
2023-02-14T18:18:51.795Z,59.85
2023-02-14T18:21:21.157Z,160.40
2023-02-14T18:23:48.460Z,111.93
2023-02-14T18:26:18.340Z,146.23
2023-02-14T18:28:45.881Z,99.57
2023-02-14T18:31:15.961Z,104.13
2023-02-14T18:33:43.355Z,95.75
2023-02-14T18:36:13.021Z,97.63
2023-02-14T18:38:41.042Z,101.22
2023-02-14T18:41:11.517Z,116.60
2023-02-14T18:43:40.826Z,103.70
2023-02-14T18:46:11.578Z,89.82
2023-02-14T18:48:38.734Z,76.15
2023-02-14T18:51:12.166Z,76.05
2023-02-14T18:53:40.207Z,95.28
2023-02-14T18:56:10.034Z,96.43
2023-02-14T18:58:37.505Z,78.90
2023-02-14T19:01:09.821Z,91.72
2023-02-14T19:03:37.830Z,101.30
2023-02-14T19:06:05.404Z,90.53
2023-02-14T19:08:37.938Z,90.00
2023-02-14T19:11:09.515Z,74.63
2023-02-14T19:13:36.760Z,72.75
2023-02-14T19:16:11.148Z,69.97
2023-02-14T19:18:39.181Z,70.78
2023-02-14T19:21:26.744Z,73.45
2023-02-14T19:23:56.497Z,62.05
2023-02-14T19:26:26.524Z,70.07
2023-02-14T19:28:59.006Z,60.20
2023-02-14T19:31:26.973Z,63.03
2023-02-14T19:33:54.451Z,56.17
2023-02-14T19:36:22.863Z,53.15
2023-02-14T19:38:51.764Z,53.50
2023-02-14T19:41:24.811Z,56.88
2023-02-14T19:43:52.915Z,51.45
2023-02-14T19:46:20.965Z,54.10
2023-02-14T19:48:48.718Z,50.85
2023-02-14T19:51:27.963Z,48.05
2023-02-14T19:53:57.118Z,54.88
2023-02-14T19:56:29.783Z,46.92
2023-02-14T20:01:37.761Z,54.60
2023-02-14T20:04:07.697Z,52.47
2023-02-14T20:06:34.289Z,56.65
2023-02-14T20:09:01.173Z,58.42
2023-02-14T20:11:31.368Z,57.15
2023-02-14T20:13:59.274Z,51.88
2023-02-14T20:16:28.810Z,54.00
2023-02-14T20:18:55.764Z,47.53
2023-02-14T20:21:28.247Z,48.33
2023-02-14T20:23:58.374Z,35.20
2023-02-14T20:26:25.637Z,44.00
2023-02-14T20:28:53.064Z,48.33
2023-02-14T20:31:20.821Z,46.80
2023-02-14T20:33:51.361Z,40.33
2023-02-14T20:36:19.272Z,41.28
2023-02-14T20:38:46.034Z,42.50
2023-02-14T20:41:16.562Z,40.35
2023-02-14T20:43:43.335Z,43.03
2023-02-14T20:46:10.644Z,39.45
2023-02-14T20:48:37.260Z,44.72
2023-02-14T20:51:16.129Z,47.10
2023-02-14T20:53:44.333Z,46.65
2023-02-14T20:56:12.058Z,42.90
2023-02-14T20:58:39.450Z,46.10
2023-02-14T21:01:13.505Z,37.40
2023-02-14T21:03:41.549Z,40.78
2023-02-14T21:06:11.778Z,41.15
2023-02-14T21:08:39.403Z,42.00
2023-02-14T21:11:09.436Z,44.28
2023-02-14T21:13:36.741Z,44.17
2023-02-14T21:16:04.962Z,48.90
2023-02-14T21:18:33.110Z,47.38
2023-02-14T21:21:24.569Z,40.75
2023-02-14T21:23:52.376Z,42.63
2023-02-14T21:26:21.546Z,44.05
2023-02-14T21:28:48.422Z,46.50
2023-02-14T21:31:18.164Z,43.30
2023-02-14T21:33:44.853Z,43.03
2023-02-14T21:36:14.940Z,47.80
2023-02-14T21:38:41.937Z,48.08
2023-02-14T21:41:11.649Z,45.97
2023-02-14T21:43:40.488Z,48.92
2023-02-14T21:46:11.288Z,45.25
2023-02-14T21:48:58.620Z,47.63
2023-02-14T21:51:27.710Z,49.92
2023-02-14T21:53:55.004Z,54.75
2023-02-14T21:56:23.126Z,46.33
2023-02-14T21:58:52.415Z,50.50
2023-02-14T22:01:22.285Z,51.42
2023-02-14T22:03:49.193Z,46.58
2023-02-14T22:06:17.001Z,59.28
2023-02-14T22:08:43.831Z,51.58
2023-02-14T22:11:14.426Z,60.13
2023-02-14T22:13:41.529Z,51.35
2023-02-14T22:16:12.193Z,54.33
2023-02-14T22:18:39.801Z,62.60
2023-02-14T22:21:14.449Z,58.97
2023-02-14T22:23:41.133Z,58.75
2023-02-14T22:26:17.881Z,57.30
2023-02-14T22:28:47.777Z,56.05
2023-02-14T22:31:16.914Z,62.75
2023-02-14T22:33:44.364Z,54.30
2023-02-14T22:36:12.266Z,58.30
2023-02-14T22:38:38.999Z,57.47
2023-02-14T22:41:14.896Z,63.35
2023-02-14T22:43:42.318Z,59.10
2023-02-14T22:46:12.688Z,60.85
2023-02-14T22:48:39.705Z,60.40
2023-02-14T22:51:21.583Z,67.80
2023-02-14T22:53:50.014Z,64.10
2023-02-14T22:56:23.150Z,63.17
2023-02-14T23:01:22.615Z,57.75
2023-02-14T23:03:53.219Z,64.30
2023-02-14T23:06:20.923Z,59.42
2023-02-14T23:08:48.133Z,62.20
2023-02-14T23:11:18.403Z,62.05
2023-02-14T23:14:04.027Z,56.40
2023-02-14T23:16:50.413Z,64.05
2023-02-14T23:19:39.444Z,61.90
2023-02-14T23:22:12.522Z,63.20
2023-02-14T23:24:40.208Z,64.13
2023-02-14T23:27:08.633Z,61.22
2023-02-14T23:29:36.387Z,65.40
2023-02-14T23:32:05.168Z,68.28
2023-02-14T23:34:34.354Z,65.90
2023-02-14T23:37:02.201Z,67.63
2023-02-14T23:39:29.073Z,68.38
2023-02-14T23:41:56.363Z,67.28
2023-02-14T23:44:25.123Z,73.10
2023-02-14T23:46:55.009Z,67.18
2023-02-14T23:49:22.374Z,71.38
2023-02-14T23:51:50.616Z,77.40
2023-02-14T23:54:18.024Z,68.13
2023-02-14T23:56:45.906Z,69.43
2023-02-14T23:59:14.242Z,69.93
